sensor_id;sensor_type;location;lat;lon;timestamp;P1;durP1;ratioP1;P2;durP2;ratioP2
58992;SDS011;44782;0.000;0.000;2022-07-23T00:00:09;3.70;;;3.40;;
58992;SDS011;44782;0.000;0.000;2022-07-23T00:02:24;3.40;;;3.20;;
58992;SDS011;44782;0.000;0.000;2022-07-23T00:04:40;3.30;;;3.10;;
58992;SDS011;44782;0.000;0.000;2022-07-23T00:06:56;3.58;;;3.30;;
58992;SDS011;44782;0.000;0.000;2022-07-23T00:09:11;3.67;;;3.40;;
58992;SDS011;44782;0.000;0.000;2022-07-23T00:11:27;3.38;;;3.17;;
58992;SDS011;44782;0.000;0.000;2022-07-23T00:13:42;3.53;;;3.20;;
58992;SDS011;44782;0.000;0.000;2022-07-23T00:15:58;3.60;;;3.30;;
58992;SDS011;44782;0.000;0.000;2022-07-23T00:18:14;3.35;;;3.05;;
58992;SDS011;44782;0.000;0.000;2022-07-23T00:20:30;3.15;;;2.95;;
58992;SDS011;44782;0.000;0.000;2022-07-23T00:22:49;3.42;;;3.13;;
58992;SDS011;44782;0.000;0.000;2022-07-23T00:25:05;3.30;;;3.10;;
58992;SDS011;44782;0.000;0.000;2022-07-23T00:27:21;3.15;;;2.95;;
58992;SDS011;44782;0.000;0.000;2022-07-23T00:29:37;3.35;;;3.05;;
58992;SDS011;44782;0.000;0.000;2022-07-23T00:31:53;3.28;;;3.08;;
58992;SDS011;44782;0.000;0.000;2022-07-23T00:34:08;3.15;;;2.95;;
58992;SDS011;44782;0.000;0.000;2022-07-23T00:36:24;3.10;;;2.90;;
58992;SDS011;44782;0.000;0.000;2022-07-23T00:38:40;3.33;;;3.13;;
58992;SDS011;44782;0.000;0.000;2022-07-23T00:40:55;3.40;;;3.10;;
58992;SDS011;44782;0.000;0.000;2022-07-23T00:43:11;3.25;;;3.05;;
58992;SDS011;44782;0.000;0.000;2022-07-23T00:45:27;3.30;;;3.10;;
58992;SDS011;44782;0.000;0.000;2022-07-23T00:47:42;3.03;;;2.83;;
58992;SDS011;44782;0.000;0.000;2022-07-23T00:49:58;3.10;;;2.90;;
58992;SDS011;44782;0.000;0.000;2022-07-23T00:52:14;3.30;;;3.10;;
58992;SDS011;44782;0.000;0.000;2022-07-23T00:54:30;3.00;;;2.80;;
58992;SDS011;44782;0.000;0.000;2022-07-23T00:56:46;3.35;;;3.05;;
58992;SDS011;44782;0.000;0.000;2022-07-23T00:59:02;3.20;;;3.00;;
58992;SDS011;44782;0.000;0.000;2022-07-23T01:01:18;3.00;;;2.80;;
58992;SDS011;44782;0.000;0.000;2022-07-23T01:03:34;3.03;;;2.70;;
58992;SDS011;44782;0.000;0.000;2022-07-23T01:05:49;2.97;;;2.78;;
58992;SDS011;44782;0.000;0.000;2022-07-23T01:08:05;3.08;;;2.88;;
58992;SDS011;44782;0.000;0.000;2022-07-23T01:10:21;2.92;;;2.72;;
58992;SDS011;44782;0.000;0.000;2022-07-23T01:12:46;3.00;;;2.80;;
58992;SDS011;44782;0.000;0.000;2022-07-23T01:15:01;3.20;;;3.00;;
58992;SDS011;44782;0.000;0.000;2022-07-23T01:17:17;3.28;;;2.97;;
58992;SDS011;44782;0.000;0.000;2022-07-23T01:19:33;3.08;;;2.88;;
58992;SDS011;44782;0.000;0.000;2022-07-23T01:21:49;2.97;;;2.78;;
58992;SDS011;44782;0.000;0.000;2022-07-23T01:24:06;3.15;;;2.95;;
58992;SDS011;44782;0.000;0.000;2022-07-23T01:26:23;3.30;;;3.10;;
58992;SDS011;44782;0.000;0.000;2022-07-23T01:28:38;3.10;;;2.90;;
58992;SDS011;44782;0.000;0.000;2022-07-23T01:30:54;3.10;;;2.90;;
58992;SDS011;44782;0.000;0.000;2022-07-23T01:33:10;3.22;;;3.03;;
58992;SDS011;44782;0.000;0.000;2022-07-23T01:35:25;3.50;;;3.28;;
58992;SDS011;44782;0.000;0.000;2022-07-23T01:37:41;3.05;;;2.85;;
58992;SDS011;44782;0.000;0.000;2022-07-23T01:39:56;3.42;;;3.13;;
58992;SDS011;44782;0.000;0.000;2022-07-23T01:42:12;3.03;;;2.83;;
58992;SDS011;44782;0.000;0.000;2022-07-23T01:44:28;3.08;;;2.80;;
58992;SDS011;44782;0.000;0.000;2022-07-23T01:46:43;3.17;;;2.97;;
58992;SDS011;44782;0.000;0.000;2022-07-23T01:48:59;3.85;;;3.10;;
58992;SDS011;44782;0.000;0.000;2022-07-23T01:51:14;2.92;;;2.72;;
58992;SDS011;44782;0.000;0.000;2022-07-23T01:53:30;3.00;;;2.80;;
58992;SDS011;44782;0.000;0.000;2022-07-23T01:55:46;3.10;;;2.90;;
58992;SDS011;44782;0.000;0.000;2022-07-23T01:58:02;2.90;;;2.70;;
58992;SDS011;44782;0.000;0.000;2022-07-23T02:00:17;3.05;;;2.85;;
58992;SDS011;44782;0.000;0.000;2022-07-23T02:02:33;2.90;;;2.70;;
58992;SDS011;44782;0.000;0.000;2022-07-23T02:04:49;2.90;;;2.70;;
58992;SDS011;44782;0.000;0.000;2022-07-23T02:07:05;2.80;;;2.60;;
58992;SDS011;44782;0.000;0.000;2022-07-23T02:09:21;3.05;;;2.80;;
58992;SDS011;44782;0.000;0.000;2022-07-23T02:11:37;3.10;;;2.90;;
58992;SDS011;44782;0.000;0.000;2022-07-23T02:13:53;3.72;;;2.65;;
58992;SDS011;44782;0.000;0.000;2022-07-23T02:16:08;2.75;;;2.55;;
58992;SDS011;44782;0.000;0.000;2022-07-23T02:18:24;2.90;;;2.70;;
58992;SDS011;44782;0.000;0.000;2022-07-23T02:20:40;4.07;;;2.92;;
58992;SDS011;44782;0.000;0.000;2022-07-23T02:22:56;2.88;;;2.67;;
58992;SDS011;44782;0.000;0.000;2022-07-23T02:25:12;2.90;;;2.70;;
58992;SDS011;44782;0.000;0.000;2022-07-23T02:27:27;2.72;;;2.53;;
58992;SDS011;44782;0.000;0.000;2022-07-23T02:29:43;2.78;;;2.58;;
58992;SDS011;44782;0.000;0.000;2022-07-23T02:31:58;2.85;;;2.60;;
58992;SDS011;44782;0.000;0.000;2022-07-23T02:34:14;3.03;;;2.83;;
58992;SDS011;44782;0.000;0.000;2022-07-23T02:36:30;3.03;;;2.83;;
58992;SDS011;44782;0.000;0.000;2022-07-23T02:38:45;3.05;;;2.85;;
58992;SDS011;44782;0.000;0.000;2022-07-23T02:41:02;3.13;;;2.92;;
58992;SDS011;44782;0.000;0.000;2022-07-23T02:43:17;3.10;;;2.80;;
58992;SDS011;44782;0.000;0.000;2022-07-23T02:45:33;3.20;;;3.00;;
58992;SDS011;44782;0.000;0.000;2022-07-23T02:47:48;2.80;;;2.60;;
58992;SDS011;44782;0.000;0.000;2022-07-23T02:50:04;3.17;;;2.97;;
58992;SDS011;44782;0.000;0.000;2022-07-23T02:52:21;3.13;;;2.92;;
58992;SDS011;44782;0.000;0.000;2022-07-23T02:54:37;3.00;;;2.80;;
58992;SDS011;44782;0.000;0.000;2022-07-23T02:56:53;3.08;;;2.88;;
58992;SDS011;44782;0.000;0.000;2022-07-23T02:59:08;2.95;;;2.75;;
58992;SDS011;44782;0.000;0.000;2022-07-23T03:01:24;2.97;;;2.78;;
58992;SDS011;44782;0.000;0.000;2022-07-23T03:03:40;2.83;;;2.63;;
58992;SDS011;44782;0.000;0.000;2022-07-23T03:05:56;3.00;;;2.80;;
58992;SDS011;44782;0.000;0.000;2022-07-23T03:08:12;3.00;;;2.80;;
58992;SDS011;44782;0.000;0.000;2022-07-23T03:10:27;2.83;;;2.63;;
58992;SDS011;44782;0.000;0.000;2022-07-23T03:12:43;2.90;;;2.70;;
58992;SDS011;44782;0.000;0.000;2022-07-23T03:14:59;2.83;;;2.63;;
58992;SDS011;44782;0.000;0.000;2022-07-23T03:17:14;2.83;;;2.63;;
58992;SDS011;44782;0.000;0.000;2022-07-23T03:19:30;2.75;;;2.55;;
58992;SDS011;44782;0.000;0.000;2022-07-23T03:21:47;3.03;;;2.83;;
58992;SDS011;44782;0.000;0.000;2022-07-23T03:24:03;3.42;;;2.65;;
58992;SDS011;44782;0.000;0.000;2022-07-23T03:26:19;2.83;;;2.63;;
58992;SDS011;44782;0.000;0.000;2022-07-23T03:28:34;2.83;;;2.63;;
58992;SDS011;44782;0.000;0.000;2022-07-23T03:30:50;3.08;;;2.88;;
58992;SDS011;44782;0.000;0.000;2022-07-23T03:33:06;2.80;;;2.60;;
58992;SDS011;44782;0.000;0.000;2022-07-23T03:35:21;2.83;;;2.63;;
58992;SDS011;44782;0.000;0.000;2022-07-23T03:37:37;2.88;;;2.67;;
58992;SDS011;44782;0.000;0.000;2022-07-23T03:39:52;2.90;;;2.70;;
58992;SDS011;44782;0.000;0.000;2022-07-23T03:42:08;2.83;;;2.63;;
58992;SDS011;44782;0.000;0.000;2022-07-23T03:44:24;2.92;;;2.72;;
58992;SDS011;44782;0.000;0.000;2022-07-23T03:46:39;2.95;;;2.75;;
58992;SDS011;44782;0.000;0.000;2022-07-23T03:48:55;3.33;;;2.90;;
58992;SDS011;44782;0.000;0.000;2022-07-23T03:51:11;3.28;;;2.97;;
58992;SDS011;44782;0.000;0.000;2022-07-23T03:53:26;3.00;;;2.80;;
58992;SDS011;44782;0.000;0.000;2022-07-23T03:55:42;3.13;;;2.55;;
58992;SDS011;44782;0.000;0.000;2022-07-23T03:57:57;3.10;;;2.90;;
58992;SDS011;44782;0.000;0.000;2022-07-23T04:00:13;2.83;;;2.63;;
58992;SDS011;44782;0.000;0.000;2022-07-23T04:02:29;2.92;;;2.72;;
58992;SDS011;44782;0.000;0.000;2022-07-23T04:04:45;3.20;;;3.00;;
58992;SDS011;44782;0.000;0.000;2022-07-23T04:07:01;2.83;;;2.60;;
58992;SDS011;44782;0.000;0.000;2022-07-23T04:09:17;2.55;;;2.42;;
58992;SDS011;44782;0.000;0.000;2022-07-23T04:11:33;2.85;;;2.65;;
58992;SDS011;44782;0.000;0.000;2022-07-23T04:13:48;3.13;;;2.92;;
58992;SDS011;44782;0.000;0.000;2022-07-23T04:16:04;2.90;;;2.70;;
58992;SDS011;44782;0.000;0.000;2022-07-23T04:18:20;2.97;;;2.78;;
58992;SDS011;44782;0.000;0.000;2022-07-23T04:20:38;3.10;;;2.90;;
58992;SDS011;44782;0.000;0.000;2022-07-23T04:22:54;3.30;;;3.10;;
58992;SDS011;44782;0.000;0.000;2022-07-23T04:25:09;3.33;;;3.05;;
58992;SDS011;44782;0.000;0.000;2022-07-23T04:27:25;2.92;;;2.72;;
58992;SDS011;44782;0.000;0.000;2022-07-23T04:29:41;2.85;;;2.65;;
58992;SDS011;44782;0.000;0.000;2022-07-23T04:31:56;2.92;;;2.72;;
58992;SDS011;44782;0.000;0.000;2022-07-23T04:34:12;3.00;;;2.80;;
58992;SDS011;44782;0.000;0.000;2022-07-23T04:36:28;3.17;;;2.97;;
58992;SDS011;44782;0.000;0.000;2022-07-23T04:38:43;3.78;;;3.10;;
58992;SDS011;44782;0.000;0.000;2022-07-23T04:40:59;3.00;;;2.80;;
58992;SDS011;44782;0.000;0.000;2022-07-23T04:43:15;3.22;;;3.03;;
58992;SDS011;44782;0.000;0.000;2022-07-23T04:45:30;2.80;;;2.60;;
58992;SDS011;44782;0.000;0.000;2022-07-23T04:47:46;3.03;;;2.83;;
58992;SDS011;44782;0.000;0.000;2022-07-23T04:50:02;2.90;;;2.70;;
58992;SDS011;44782;0.000;0.000;2022-07-23T04:52:17;2.90;;;2.70;;
58992;SDS011;44782;0.000;0.000;2022-07-23T04:54:33;2.80;;;2.60;;
58992;SDS011;44782;0.000;0.000;2022-07-23T04:56:49;2.72;;;2.53;;
58992;SDS011;44782;0.000;0.000;2022-07-23T04:59:04;3.10;;;2.90;;
58992;SDS011;44782;0.000;0.000;2022-07-23T05:01:20;2.90;;;2.70;;
58992;SDS011;44782;0.000;0.000;2022-07-23T05:03:35;3.00;;;2.80;;
58992;SDS011;44782;0.000;0.000;2022-07-23T05:05:51;3.13;;;2.92;;
58992;SDS011;44782;0.000;0.000;2022-07-23T05:08:07;3.15;;;2.90;;
58992;SDS011;44782;0.000;0.000;2022-07-23T05:10:22;3.15;;;2.80;;
58992;SDS011;44782;0.000;0.000;2022-07-23T05:12:38;2.97;;;2.78;;
58992;SDS011;44782;0.000;0.000;2022-07-23T05:14:53;2.88;;;2.67;;
58992;SDS011;44782;0.000;0.000;2022-07-23T05:17:09;3.00;;;2.80;;
58992;SDS011;44782;0.000;0.000;2022-07-23T05:19:24;3.33;;;3.13;;
58992;SDS011;44782;0.000;0.000;2022-07-23T05:21:40;3.47;;;3.17;;
58992;SDS011;44782;0.000;0.000;2022-07-23T05:23:56;3.05;;;2.85;;
58992;SDS011;44782;0.000;0.000;2022-07-23T05:26:11;3.50;;;3.20;;
58992;SDS011;44782;0.000;0.000;2022-07-23T05:28:27;3.70;;;3.40;;
58992;SDS011;44782;0.000;0.000;2022-07-23T05:30:42;3.33;;;3.13;;
58992;SDS011;44782;0.000;0.000;2022-07-23T05:32:58;3.20;;;3.00;;
58992;SDS011;44782;0.000;0.000;2022-07-23T05:35:14;3.22;;;3.03;;
58992;SDS011;44782;0.000;0.000;2022-07-23T05:37:29;3.47;;;3.17;;
58992;SDS011;44782;0.000;0.000;2022-07-23T05:39:45;3.30;;;3.10;;
58992;SDS011;44782;0.000;0.000;2022-07-23T05:42:01;3.38;;;3.08;;
58992;SDS011;44782;0.000;0.000;2022-07-23T05:44:16;3.28;;;3.08;;
58992;SDS011;44782;0.000;0.000;2022-07-23T05:46:32;3.25;;;2.95;;
58992;SDS011;44782;0.000;0.000;2022-07-23T05:48:47;3.40;;;3.10;;
58992;SDS011;44782;0.000;0.000;2022-07-23T05:51:04;3.40;;;3.20;;
58992;SDS011;44782;0.000;0.000;2022-07-23T05:53:21;3.53;;;3.22;;
58992;SDS011;44782;0.000;0.000;2022-07-23T05:55:37;3.50;;;3.20;;
58992;SDS011;44782;0.000;0.000;2022-07-23T05:57:52;3.22;;;2.92;;
58992;SDS011;44782;0.000;0.000;2022-07-23T06:00:08;3.10;;;2.90;;
58992;SDS011;44782;0.000;0.000;2022-07-23T06:02:25;3.00;;;2.80;;
58992;SDS011;44782;0.000;0.000;2022-07-23T06:04:41;3.58;;;3.28;;
58992;SDS011;44782;0.000;0.000;2022-07-23T06:06:57;3.83;;;3.20;;
58992;SDS011;44782;0.000;0.000;2022-07-23T06:09:12;3.40;;;3.13;;
58992;SDS011;44782;0.000;0.000;2022-07-23T06:11:28;3.40;;;3.10;;
58992;SDS011;44782;0.000;0.000;2022-07-23T06:13:44;3.30;;;3.00;;
58992;SDS011;44782;0.000;0.000;2022-07-23T06:16:00;3.80;;;3.50;;
58992;SDS011;44782;0.000;0.000;2022-07-23T06:18:15;3.13;;;2.92;;
58992;SDS011;44782;0.000;0.000;2022-07-23T06:20:31;3.60;;;3.40;;
58992;SDS011;44782;0.000;0.000;2022-07-23T06:22:47;3.00;;;2.80;;
58992;SDS011;44782;0.000;0.000;2022-07-23T06:25:02;3.60;;;3.30;;
58992;SDS011;44782;0.000;0.000;2022-07-23T06:27:18;3.42;;;3.20;;
58992;SDS011;44782;0.000;0.000;2022-07-23T06:29:34;3.70;;;3.40;;
58992;SDS011;44782;0.000;0.000;2022-07-23T06:31:49;4.28;;;3.90;;
58992;SDS011;44782;0.000;0.000;2022-07-23T06:34:05;3.22;;;3.03;;
58992;SDS011;44782;0.000;0.000;2022-07-23T06:36:20;3.70;;;3.40;;
58992;SDS011;44782;0.000;0.000;2022-07-23T06:38:36;3.40;;;3.20;;
58992;SDS011;44782;0.000;0.000;2022-07-23T06:40:52;3.78;;;3.45;;
58992;SDS011;44782;0.000;0.000;2022-07-23T06:43:07;3.67;;;3.38;;
58992;SDS011;44782;0.000;0.000;2022-07-23T06:45:23;3.58;;;3.28;;
58992;SDS011;44782;0.000;0.000;2022-07-23T06:47:39;3.80;;;3.50;;
58992;SDS011;44782;0.000;0.000;2022-07-23T06:49:55;3.60;;;3.30;;
58992;SDS011;44782;0.000;0.000;2022-07-23T06:52:11;3.53;;;3.33;;
58992;SDS011;44782;0.000;0.000;2022-07-23T06:54:27;3.70;;;3.40;;
58992;SDS011;44782;0.000;0.000;2022-07-23T06:56:42;3.42;;;3.17;;
58992;SDS011;44782;0.000;0.000;2022-07-23T06:58:58;3.42;;;3.22;;
58992;SDS011;44782;0.000;0.000;2022-07-23T07:01:14;4.22;;;3.90;;
58992;SDS011;44782;0.000;0.000;2022-07-23T07:03:29;4.85;;;4.38;;
58992;SDS011;44782;0.000;0.000;2022-07-23T07:05:45;5.78;;;5.28;;
58992;SDS011;44782;0.000;0.000;2022-07-23T07:08:01;6.10;;;5.50;;
58992;SDS011;44782;0.000;0.000;2022-07-23T07:10:16;6.80;;;6.05;;
58992;SDS011;44782;0.000;0.000;2022-07-23T07:12:32;6.40;;;5.90;;
58992;SDS011;44782;0.000;0.000;2022-07-23T07:14:48;6.93;;;6.22;;
58992;SDS011;44782;0.000;0.000;2022-07-23T07:17:03;6.78;;;6.10;;
58992;SDS011;44782;0.000;0.000;2022-07-23T07:19:19;7.00;;;6.30;;
58992;SDS011;44782;0.000;0.000;2022-07-23T07:21:35;7.18;;;6.47;;
58992;SDS011;44782;0.000;0.000;2022-07-23T07:23:51;7.15;;;6.45;;
58992;SDS011;44782;0.000;0.000;2022-07-23T07:26:06;7.10;;;6.47;;
58992;SDS011;44782;0.000;0.000;2022-07-23T07:28:22;7.07;;;6.40;;
58992;SDS011;44782;0.000;0.000;2022-07-23T07:30:38;7.35;;;6.65;;
58992;SDS011;44782;0.000;0.000;2022-07-23T07:32:53;6.85;;;6.07;;
58992;SDS011;44782;0.000;0.000;2022-07-23T07:35:09;7.10;;;6.40;;
58992;SDS011;44782;0.000;0.000;2022-07-23T07:37:25;7.25;;;6.43;;
58992;SDS011;44782;0.000;0.000;2022-07-23T07:39:40;6.75;;;6.15;;
58992;SDS011;44782;0.000;0.000;2022-07-23T07:41:56;6.95;;;6.35;;
58992;SDS011;44782;0.000;0.000;2022-07-23T07:44:11;6.97;;;6.35;;
58992;SDS011;44782;0.000;0.000;2022-07-23T07:46:27;7.90;;;7.05;;
58992;SDS011;44782;0.000;0.000;2022-07-23T07:48:43;7.25;;;6.55;;
58992;SDS011;44782;0.000;0.000;2022-07-23T07:50:58;7.22;;;6.53;;
58992;SDS011;44782;0.000;0.000;2022-07-23T07:53:14;7.35;;;6.57;;
58992;SDS011;44782;0.000;0.000;2022-07-23T07:55:30;7.47;;;6.72;;
58992;SDS011;44782;0.000;0.000;2022-07-23T07:57:46;7.22;;;6.50;;
58992;SDS011;44782;0.000;0.000;2022-07-23T08:00:01;7.97;;;7.18;;
58992;SDS011;44782;0.000;0.000;2022-07-23T08:02:18;7.75;;;7.07;;
58992;SDS011;44782;0.000;0.000;2022-07-23T08:04:33;7.97;;;6.68;;
58992;SDS011;44782;0.000;0.000;2022-07-23T08:06:49;7.22;;;6.63;;
58992;SDS011;44782;0.000;0.000;2022-07-23T08:09:04;8.70;;;6.70;;
58992;SDS011;44782;0.000;0.000;2022-07-23T08:11:20;7.35;;;6.65;;
58992;SDS011;44782;0.000;0.000;2022-07-23T08:13:35;7.00;;;6.38;;
58992;SDS011;44782;0.000;0.000;2022-07-23T08:15:51;8.75;;;6.57;;
58992;SDS011;44782;0.000;0.000;2022-07-23T08:18:08;7.07;;;6.45;;
58992;SDS011;44782;0.000;0.000;2022-07-23T08:20:24;7.03;;;6.40;;
58992;SDS011;44782;0.000;0.000;2022-07-23T08:22:41;7.68;;;7.00;;
58992;SDS011;44782;0.000;0.000;2022-07-23T08:25:24;7.35;;;6.65;;
58992;SDS011;44782;0.000;0.000;2022-07-23T08:27:41;7.18;;;6.47;;
58992;SDS011;44782;0.000;0.000;2022-07-23T08:29:57;7.88;;;7.18;;
58992;SDS011;44782;0.000;0.000;2022-07-23T08:32:12;7.30;;;6.60;;
58992;SDS011;44782;0.000;0.000;2022-07-23T08:34:28;7.25;;;6.38;;
58992;SDS011;44782;0.000;0.000;2022-07-23T08:36:43;8.23;;;6.88;;
58992;SDS011;44782;0.000;0.000;2022-07-23T08:38:59;7.25;;;6.55;;
58992;SDS011;44782;0.000;0.000;2022-07-23T08:41:17;6.88;;;6.28;;
58992;SDS011;44782;0.000;0.000;2022-07-23T08:43:32;6.80;;;6.10;;
58992;SDS011;44782;0.000;0.000;2022-07-23T08:45:51;6.60;;;6.00;;
58992;SDS011;44782;0.000;0.000;2022-07-23T08:48:21;7.22;;;6.43;;
58992;SDS011;44782;0.000;0.000;2022-07-23T08:50:40;6.50;;;5.90;;
58992;SDS011;44782;0.000;0.000;2022-07-23T08:53:02;6.38;;;5.88;;
58992;SDS011;44782;0.000;0.000;2022-07-23T08:55:21;5.93;;;5.43;;
58992;SDS011;44782;0.000;0.000;2022-07-23T08:57:37;6.22;;;5.72;;
58992;SDS011;44782;0.000;0.000;2022-07-23T08:59:53;6.00;;;5.50;;
58992;SDS011;44782;0.000;0.000;2022-07-23T09:02:09;6.28;;;5.68;;
58992;SDS011;44782;0.000;0.000;2022-07-23T09:04:24;6.70;;;5.85;;
58992;SDS011;44782;0.000;0.000;2022-07-23T09:06:40;6.20;;;5.68;;
58992;SDS011;44782;0.000;0.000;2022-07-23T09:08:56;6.88;;;6.28;;
58992;SDS011;44782;0.000;0.000;2022-07-23T09:11:12;6.32;;;5.82;;
58992;SDS011;44782;0.000;0.000;2022-07-23T09:13:32;5.93;;;5.53;;
58992;SDS011;44782;0.000;0.000;2022-07-23T09:15:57;6.30;;;5.15;;
58992;SDS011;44782;0.000;0.000;2022-07-23T09:18:15;5.95;;;5.53;;
58992;SDS011;44782;0.000;0.000;2022-07-23T09:20:31;6.25;;;5.75;;
58992;SDS011;44782;0.000;0.000;2022-07-23T09:22:47;6.07;;;5.50;;
58992;SDS011;44782;0.000;0.000;2022-07-23T09:27:19;6.47;;;5.97;;
58992;SDS011;44782;0.000;0.000;2022-07-23T09:29:35;6.32;;;5.82;;
58992;SDS011;44782;0.000;0.000;2022-07-23T09:31:54;5.75;;;5.35;;
58992;SDS011;44782;0.000;0.000;2022-07-23T09:34:13;5.90;;;5.35;;
58992;SDS011;44782;0.000;0.000;2022-07-23T09:36:36;6.28;;;5.68;;
58992;SDS011;44782;0.000;0.000;2022-07-23T09:38:53;6.07;;;5.65;;
58992;SDS011;44782;0.000;0.000;2022-07-23T09:41:09;6.50;;;5.90;;
58992;SDS011;44782;0.000;0.000;2022-07-23T09:43:26;6.32;;;5.82;;
58992;SDS011;44782;0.000;0.000;2022-07-23T09:45:43;6.18;;;5.68;;
58992;SDS011;44782;0.000;0.000;2022-07-23T09:48:15;6.68;;;6.07;;
58992;SDS011;44782;0.000;0.000;2022-07-23T09:50:31;6.18;;;5.57;;
58992;SDS011;44782;0.000;0.000;2022-07-23T09:52:48;6.70;;;6.10;;
58992;SDS011;44782;0.000;0.000;2022-07-23T09:55:05;6.55;;;5.95;;
58992;SDS011;44782;0.000;0.000;2022-07-23T09:57:21;6.05;;;5.60;;
58992;SDS011;44782;0.000;0.000;2022-07-23T09:59:38;6.63;;;6.13;;
58992;SDS011;44782;0.000;0.000;2022-07-23T10:01:55;6.53;;;5.97;;
58992;SDS011;44782;0.000;0.000;2022-07-23T10:04:14;7.10;;;6.55;;
58992;SDS011;44782;0.000;0.000;2022-07-23T10:06:30;6.90;;;6.30;;
58992;SDS011;44782;0.000;0.000;2022-07-23T10:08:46;6.63;;;6.07;;
58992;SDS011;44782;0.000;0.000;2022-07-23T10:11:05;7.13;;;6.55;;
58992;SDS011;44782;0.000;0.000;2022-07-23T10:13:21;7.15;;;6.55;;
58992;SDS011;44782;0.000;0.000;2022-07-23T10:15:49;6.93;;;6.32;;
58992;SDS011;44782;0.000;0.000;2022-07-23T10:18:05;6.65;;;6.15;;
58992;SDS011;44782;0.000;0.000;2022-07-23T10:20:21;6.57;;;6.07;;
58992;SDS011;44782;0.000;0.000;2022-07-23T10:22:38;6.68;;;6.07;;
58992;SDS011;44782;0.000;0.000;2022-07-23T10:27:33;6.28;;;5.78;;
58992;SDS011;44782;0.000;0.000;2022-07-23T10:30:15;6.43;;;5.90;;
58992;SDS011;44782;0.000;0.000;2022-07-23T10:35:26;6.60;;;6.10;;
58992;SDS011;44782;0.000;0.000;2022-07-23T10:37:55;6.35;;;5.82;;
58992;SDS011;44782;0.000;0.000;2022-07-23T10:40:17;6.40;;;5.90;;
58992;SDS011;44782;0.000;0.000;2022-07-23T10:42:36;6.57;;;6.05;;
58992;SDS011;44782;0.000;0.000;2022-07-23T10:44:53;6.70;;;6.20;;
58992;SDS011;44782;0.000;0.000;2022-07-23T10:47:09;6.82;;;6.22;;
58992;SDS011;44782;0.000;0.000;2022-07-23T10:49:37;6.78;;;6.28;;
58992;SDS011;44782;0.000;0.000;2022-07-23T10:54:31;6.68;;;6.18;;
58992;SDS011;44782;0.000;0.000;2022-07-23T10:59:11;6.97;;;6.47;;
58992;SDS011;44782;0.000;0.000;2022-07-23T11:01:36;7.07;;;6.55;;
58992;SDS011;44782;0.000;0.000;2022-07-23T11:03:56;7.30;;;6.70;;
58992;SDS011;44782;0.000;0.000;2022-07-23T11:06:13;6.60;;;6.10;;
58992;SDS011;44782;0.000;0.000;2022-07-23T11:11:09;7.03;;;6.43;;
58992;SDS011;44782;0.000;0.000;2022-07-23T11:13:25;7.28;;;6.68;;
58992;SDS011;44782;0.000;0.000;2022-07-23T11:16:03;7.32;;;6.82;;
58992;SDS011;44782;0.000;0.000;2022-07-23T11:18:19;7.07;;;6.55;;
58992;SDS011;44782;0.000;0.000;2022-07-23T11:20:55;6.93;;;6.43;;
58992;SDS011;44782;0.000;0.000;2022-07-23T11:23:10;7.30;;;6.70;;
58992;SDS011;44782;0.000;0.000;2022-07-23T11:27:45;7.35;;;6.75;;
58992;SDS011;44782;0.000;0.000;2022-07-23T11:30:01;7.53;;;6.82;;
58992;SDS011;44782;0.000;0.000;2022-07-23T11:34:34;6.88;;;6.28;;
58992;SDS011;44782;0.000;0.000;2022-07-23T11:36:51;7.28;;;6.60;;
58992;SDS011;44782;0.000;0.000;2022-07-23T11:39:06;7.30;;;6.72;;
58992;SDS011;44782;0.000;0.000;2022-07-23T11:41:22;6.85;;;6.28;;
58992;SDS011;44782;0.000;0.000;2022-07-23T11:43:38;6.97;;;6.47;;
58992;SDS011;44782;0.000;0.000;2022-07-23T11:45:56;7.35;;;6.75;;
58992;SDS011;44782;0.000;0.000;2022-07-23T11:50:36;7.22;;;6.63;;
58992;SDS011;44782;0.000;0.000;2022-07-23T11:52:52;7.70;;;7.00;;
58992;SDS011;44782;0.000;0.000;2022-07-23T11:55:09;7.72;;;7.13;;
58992;SDS011;44782;0.000;0.000;2022-07-23T11:57:27;7.65;;;7.05;;
58992;SDS011;44782;0.000;0.000;2022-07-23T11:59:47;8.38;;;7.68;;
58992;SDS011;44782;0.000;0.000;2022-07-23T12:02:06;7.70;;;7.10;;
58992;SDS011;44782;0.000;0.000;2022-07-23T12:04:22;8.18;;;7.57;;
58992;SDS011;44782;0.000;0.000;2022-07-23T12:06:38;8.73;;;7.93;;
58992;SDS011;44782;0.000;0.000;2022-07-23T12:11:09;9.80;;;9.00;;
58992;SDS011;44782;0.000;0.000;2022-07-23T12:13:27;9.43;;;8.73;;
58992;SDS011;44782;0.000;0.000;2022-07-23T12:15:43;10.70;;;9.60;;
58992;SDS011;44782;0.000;0.000;2022-07-23T12:18:02;10.80;;;9.75;;
58992;SDS011;44782;0.000;0.000;2022-07-23T12:20:21;9.85;;;9.13;;
58992;SDS011;44782;0.000;0.000;2022-07-23T12:22:45;10.43;;;9.63;;
58992;SDS011;44782;0.000;0.000;2022-07-23T12:25:03;10.60;;;9.77;;
58992;SDS011;44782;0.000;0.000;2022-07-23T12:27:33;9.90;;;9.13;;
58992;SDS011;44782;0.000;0.000;2022-07-23T12:29:49;11.20;;;10.13;;
58992;SDS011;44782;0.000;0.000;2022-07-23T12:32:21;10.52;;;9.73;;
58992;SDS011;44782;0.000;0.000;2022-07-23T12:34:36;10.55;;;9.73;;
58992;SDS011;44782;0.000;0.000;2022-07-23T12:36:53;11.52;;;10.40;;
58992;SDS011;44782;0.000;0.000;2022-07-23T12:39:09;11.05;;;10.15;;
58992;SDS011;44782;0.000;0.000;2022-07-23T12:41:24;10.90;;;10.10;;
58992;SDS011;44782;0.000;0.000;2022-07-23T12:43:41;11.05;;;10.15;;
58992;SDS011;44782;0.000;0.000;2022-07-23T12:46:02;11.73;;;10.73;;
58992;SDS011;44782;0.000;0.000;2022-07-23T12:48:27;11.30;;;10.35;;
58992;SDS011;44782;0.000;0.000;2022-07-23T12:50:48;11.32;;;10.38;;
58992;SDS011;44782;0.000;0.000;2022-07-23T12:53:09;10.95;;;10.07;;
58992;SDS011;44782;0.000;0.000;2022-07-23T12:55:57;11.43;;;10.32;;
58992;SDS011;44782;0.000;0.000;2022-07-23T12:58:20;11.23;;;10.32;;
58992;SDS011;44782;0.000;0.000;2022-07-23T13:00:52;10.93;;;10.13;;
58992;SDS011;44782;0.000;0.000;2022-07-23T13:03:20;10.27;;;9.48;;
58992;SDS011;44782;0.000;0.000;2022-07-23T13:05:46;10.18;;;9.38;;
58992;SDS011;44782;0.000;0.000;2022-07-23T13:08:02;11.27;;;10.43;;
58992;SDS011;44782;0.000;0.000;2022-07-23T13:10:18;10.82;;;10.02;;
58992;SDS011;44782;0.000;0.000;2022-07-23T13:12:34;11.25;;;10.30;;
58992;SDS011;44782;0.000;0.000;2022-07-23T13:14:50;10.65;;;9.82;;
58992;SDS011;44782;0.000;0.000;2022-07-23T13:17:05;11.50;;;10.48;;
58992;SDS011;44782;0.000;0.000;2022-07-23T13:19:21;10.98;;;10.07;;
58992;SDS011;44782;0.000;0.000;2022-07-23T13:21:37;10.25;;;9.45;;
58992;SDS011;44782;0.000;0.000;2022-07-23T13:23:53;10.95;;;10.05;;
58992;SDS011;44782;0.000;0.000;2022-07-23T13:26:10;10.25;;;9.45;;
58992;SDS011;44782;0.000;0.000;2022-07-23T13:28:26;10.85;;;9.95;;
58992;SDS011;44782;0.000;0.000;2022-07-23T13:30:42;11.00;;;10.10;;
58992;SDS011;44782;0.000;0.000;2022-07-23T13:32:59;10.50;;;9.70;;
58992;SDS011;44782;0.000;0.000;2022-07-23T13:35:16;11.48;;;10.40;;
58992;SDS011;44782;0.000;0.000;2022-07-23T13:37:31;10.88;;;9.98;;
58992;SDS011;44782;0.000;0.000;2022-07-23T13:39:47;10.27;;;9.48;;
58992;SDS011;44782;0.000;0.000;2022-07-23T13:42:03;10.70;;;9.70;;
58992;SDS011;44782;0.000;0.000;2022-07-23T13:44:19;10.77;;;9.98;;
58992;SDS011;44782;0.000;0.000;2022-07-23T13:46:34;10.60;;;9.70;;
58992;SDS011;44782;0.000;0.000;2022-07-23T13:48:50;10.50;;;9.60;;
58992;SDS011;44782;0.000;0.000;2022-07-23T13:51:06;10.48;;;9.68;;
58992;SDS011;44782;0.000;0.000;2022-07-23T13:53:23;9.88;;;8.98;;
58992;SDS011;44782;0.000;0.000;2022-07-23T13:55:39;10.55;;;9.68;;
58992;SDS011;44782;0.000;0.000;2022-07-23T13:57:57;10.85;;;9.85;;
58992;SDS011;44782;0.000;0.000;2022-07-23T14:00:13;10.82;;;9.85;;
58992;SDS011;44782;0.000;0.000;2022-07-23T14:02:29;10.23;;;9.43;;
58992;SDS011;44782;0.000;0.000;2022-07-23T14:04:45;10.73;;;9.93;;
58992;SDS011;44782;0.000;0.000;2022-07-23T14:07:00;9.90;;;9.10;;
58992;SDS011;44782;0.000;0.000;2022-07-23T14:09:16;10.02;;;8.77;;
58992;SDS011;44782;0.000;0.000;2022-07-23T14:11:32;10.07;;;9.18;;
58992;SDS011;44782;0.000;0.000;2022-07-23T14:13:48;10.63;;;9.73;;
58992;SDS011;44782;0.000;0.000;2022-07-23T14:16:04;11.02;;;10.02;;
58992;SDS011;44782;0.000;0.000;2022-07-23T14:18:20;10.68;;;9.65;;